createdAt,value
2023-01-26T00:00:12.203Z,22.47
2023-01-26T00:02:40.864Z,23.20
2023-01-26T00:05:10.134Z,22.63
2023-01-26T00:07:39.666Z,22.47
2023-01-26T00:10:08.540Z,23.37
2023-01-26T00:12:37.077Z,23.77
2023-01-26T00:15:09.306Z,24.07
2023-01-26T00:17:38.605Z,23.83
2023-01-26T00:20:07.675Z,23.07
2023-01-26T00:22:36.143Z,23.50
2023-01-26T00:25:07.381Z,23.93
2023-01-26T00:27:35.831Z,22.47
2023-01-26T00:30:04.463Z,23.83
2023-01-26T00:32:36.530Z,24.33
2023-01-26T00:35:05.614Z,26.23
2023-01-26T00:37:34.170Z,25.23
2023-01-26T00:40:04.977Z,22.77
2023-01-26T00:42:33.464Z,23.40
2023-01-26T00:45:01.889Z,22.83
2023-01-26T00:47:30.302Z,23.43
2023-01-26T00:50:00.600Z,22.53
2023-01-26T00:52:29.065Z,22.07
2023-01-26T00:54:57.429Z,24.50
2023-01-26T00:57:25.858Z,32.27
2023-01-26T00:59:54.298Z,34.87
2023-01-26T01:02:22.887Z,37.67
2023-01-26T01:04:51.411Z,38.40
2023-01-26T01:07:21.276Z,29.83
2023-01-26T01:09:49.723Z,25.43
2023-01-26T01:12:18.162Z,27.23
2023-01-26T01:14:46.592Z,27.77
2023-01-26T01:17:15.012Z,26.87
2023-01-26T01:19:43.564Z,29.50
2023-01-26T01:22:12.006Z,28.47
2023-01-26T01:24:42.173Z,28.83
2023-01-26T01:27:10.535Z,28.57
2023-01-26T01:29:39.448Z,23.77
2023-01-26T01:32:07.948Z,24.23
2023-01-26T01:34:36.278Z,23.50
2023-01-26T01:37:04.658Z,24.00
2023-01-26T01:39:35.341Z,24.63
2023-01-26T01:42:05.567Z,28.33
2023-01-26T01:44:37.355Z,28.27
2023-01-26T01:47:08.957Z,26.03
2023-01-26T01:49:43.412Z,26.07
2023-01-26T01:52:17.786Z,28.23
2023-01-26T01:54:52.371Z,25.37
2023-01-26T01:57:28.012Z,27.93
2023-01-26T02:00:02.079Z,24.20
2023-01-26T02:02:30.635Z,23.83
2023-01-26T02:05:05.493Z,22.07
2023-01-26T02:07:34.635Z,24.33
2023-01-26T02:10:22.009Z,23.93
2023-01-26T02:12:56.892Z,23.80
2023-01-26T02:15:25.437Z,24.70
2023-01-26T02:17:54.437Z,24.53
2023-01-26T02:20:30.252Z,24.27
2023-01-26T02:23:06.410Z,25.03
2023-01-26T02:25:39.480Z,26.93
2023-01-26T02:28:09.456Z,26.70
2023-01-26T02:30:38.104Z,25.33
2023-01-26T02:33:06.547Z,25.30
2023-01-26T02:35:35.005Z,25.13
2023-01-26T02:38:03.485Z,26.20
2023-01-26T02:40:39.373Z,27.93
2023-01-26T02:43:08.410Z,27.77
2023-01-26T02:45:37.477Z,26.47
2023-01-26T02:48:06.736Z,27.47
2023-01-26T02:50:34.961Z,27.20
2023-01-26T02:53:03.900Z,27.83
2023-01-26T02:55:32.685Z,27.77
2023-01-26T02:58:04.258Z,27.77
2023-01-26T03:00:37.583Z,26.40
2023-01-26T03:03:13.556Z,26.77
2023-01-26T03:05:42.202Z,25.77
2023-01-26T03:08:10.778Z,26.33
2023-01-26T03:10:39.550Z,27.33
2023-01-26T03:13:08.011Z,25.40
2023-01-26T03:15:52.866Z,25.93
2023-01-26T03:18:40.959Z,25.67
2023-01-26T03:21:31.664Z,27.70
2023-01-26T03:24:17.553Z,26.93
2023-01-26T03:27:05.053Z,27.63
2023-01-26T03:29:34.047Z,27.60
2023-01-26T03:32:04.285Z,27.50
2023-01-26T03:34:32.983Z,28.33
2023-01-26T03:37:01.448Z,28.67
2023-01-26T03:39:46.945Z,29.37
2023-01-26T03:42:32.703Z,26.97
2023-01-26T03:45:18.555Z,27.10
2023-01-26T03:48:05.515Z,29.43
2023-01-26T03:50:56.262Z,32.73
2023-01-26T03:53:43.299Z,31.33
2023-01-26T03:56:18.583Z,30.87
2023-01-26T03:58:47.007Z,29.07
2023-01-26T04:01:20.212Z,30.37
2023-01-26T04:04:09.406Z,31.67
2023-01-26T04:06:56.515Z,35.03
2023-01-26T04:09:25.457Z,31.10
2023-01-26T04:11:53.993Z,26.60
2023-01-26T04:14:49.369Z,28.00
2023-01-26T04:17:36.580Z,27.83
2023-01-26T04:20:25.248Z,26.03
2023-01-26T04:22:53.717Z,27.37
2023-01-26T04:25:23.303Z,24.93
2023-01-26T04:27:51.744Z,29.33
2023-01-26T04:30:21.219Z,29.50
2023-01-26T04:32:49.709Z,29.17
2023-01-26T04:35:19.526Z,35.17
2023-01-26T04:37:48.857Z,36.53
2023-01-26T04:40:17.427Z,32.00
2023-01-26T04:42:46.052Z,31.70
2023-01-26T04:45:14.569Z,32.33
2023-01-26T04:47:42.991Z,29.30
2023-01-26T04:50:12.498Z,32.10
2023-01-26T04:52:42.616Z,29.03
2023-01-26T04:55:11.442Z,29.90
2023-01-26T04:57:39.869Z,27.50
2023-01-26T05:00:11.042Z,25.50
2023-01-26T05:02:40.640Z,25.30
2023-01-26T05:05:10.002Z,22.43
2023-01-26T05:07:38.412Z,21.57
2023-01-26T05:10:09.419Z,22.57
2023-01-26T05:12:38.526Z,23.37
2023-01-26T05:15:07.586Z,22.50
2023-01-26T05:17:37.187Z,21.80
2023-01-26T05:20:06.355Z,20.57
2023-01-26T05:22:34.773Z,21.37
2023-01-26T05:25:03.192Z,21.17
2023-01-26T05:27:32.975Z,21.67
2023-01-26T05:30:01.662Z,23.17
2023-01-26T05:32:30.825Z,22.47
2023-01-26T05:34:59.813Z,23.20
2023-01-26T05:37:35.052Z,23.17
2023-01-26T05:40:04.326Z,22.10
2023-01-26T05:42:34.189Z,22.23
2023-01-26T05:45:02.715Z,22.23
2023-01-26T05:47:31.237Z,20.97
2023-01-26T05:49:59.681Z,20.80
2023-01-26T05:52:28.081Z,23.50
2023-01-26T05:54:56.550Z,21.90
2023-01-26T05:57:24.996Z,25.37
2023-01-26T05:59:54.896Z,31.60
2023-01-26T06:02:23.368Z,31.80
2023-01-26T06:04:51.779Z,25.97
2023-01-26T06:07:20.419Z,27.13
2023-01-26T06:09:50.935Z,26.57
2023-01-26T06:12:20.935Z,28.60
2023-01-26T06:14:49.456Z,28.53
2023-01-26T06:17:20.056Z,26.60
2023-01-26T06:19:48.461Z,28.33
2023-01-26T06:22:16.889Z,28.43
2023-01-26T06:24:45.491Z,27.90
2023-01-26T06:27:16.328Z,30.20
2023-01-26T06:29:45.880Z,33.90
2023-01-26T06:32:14.913Z,32.80
2023-01-26T06:34:44.756Z,31.97
2023-01-26T06:37:14.172Z,31.20
2023-01-26T06:39:42.999Z,28.17
2023-01-26T06:42:13.185Z,29.10
2023-01-26T06:44:41.651Z,33.63
2023-01-26T06:47:10.114Z,39.07
2023-01-26T06:49:38.482Z,34.60
2023-01-26T06:52:23.913Z,35.47
2023-01-26T06:54:52.879Z,33.23
2023-01-26T06:57:21.352Z,30.17
2023-01-26T06:59:49.722Z,29.50
2023-01-26T07:02:20.746Z,27.30
2023-01-26T07:04:50.604Z,28.70
2023-01-26T07:07:20.480Z,28.03
2023-01-26T07:09:48.933Z,27.07
2023-01-26T07:12:17.303Z,27.70
2023-01-26T07:14:45.663Z,26.57
2023-01-26T07:17:14.411Z,25.27
2023-01-26T07:19:42.821Z,26.40
2023-01-26T07:22:11.254Z,24.80
2023-01-26T07:24:41.227Z,25.03
2023-01-26T07:27:09.719Z,26.63
2023-01-26T07:29:38.379Z,27.33
2023-01-26T07:32:07.254Z,29.83
2023-01-26T07:34:36.409Z,27.60
2023-01-26T07:37:05.334Z,28.10
2023-01-26T07:39:34.042Z,27.30
2023-01-26T07:42:03.862Z,28.07
2023-01-26T07:44:32.266Z,28.10
2023-01-26T07:47:00.898Z,28.67
2023-01-26T07:49:29.238Z,29.23
2023-01-26T07:51:57.653Z,26.97
2023-01-26T07:54:26.063Z,26.40
2023-01-26T07:56:55.181Z,25.50
2023-01-26T07:59:25.668Z,28.83
2023-01-26T08:01:54.197Z,26.17
2023-01-26T08:04:22.633Z,25.03
2023-01-26T08:06:53.252Z,25.73
2023-01-26T08:09:21.873Z,25.33
2023-01-26T08:11:50.282Z,24.53
2023-01-26T08:14:18.736Z,24.07
2023-01-26T08:16:49.019Z,23.57
2023-01-26T08:19:17.556Z,24.13
2023-01-26T08:21:46.010Z,27.03
2023-01-26T08:24:14.602Z,26.93
2023-01-26T08:26:43.245Z,24.50
2023-01-26T08:29:11.651Z,25.63
2023-01-26T08:31:40.136Z,26.40
2023-01-26T08:34:09.979Z,26.07
2023-01-26T08:36:40.019Z,23.80
2023-01-26T08:39:08.413Z,24.70
2023-01-26T08:41:37.069Z,24.83
2023-01-26T08:44:05.966Z,25.30
2023-01-26T08:46:34.581Z,23.17
2023-01-26T08:49:03.042Z,24.20
2023-01-26T08:51:33.032Z,24.50
2023-01-26T08:54:01.573Z,23.53
2023-01-26T08:56:30.050Z,21.73
2023-01-26T08:59:01.369Z,23.23
2023-01-26T09:01:30.322Z,26.50
2023-01-26T09:03:58.889Z,25.57
2023-01-26T09:06:28.566Z,23.93
2023-01-26T09:08:58.468Z,23.63
2023-01-26T09:11:27.225Z,23.17
2023-01-26T09:13:56.867Z,23.17
2023-01-26T09:16:26.328Z,23.20
2023-01-26T09:18:55.587Z,23.37
2023-01-26T09:21:25.317Z,22.37
2023-01-26T09:23:53.846Z,22.03
2023-01-26T09:26:23.886Z,21.77
2023-01-26T09:28:53.197Z,20.70
2023-01-26T09:31:21.825Z,21.37
2023-01-26T09:33:50.753Z,23.20
2023-01-26T09:36:19.469Z,28.00
2023-01-26T09:38:47.917Z,25.33
2023-01-26T09:41:34.811Z,21.07
2023-01-26T09:44:07.346Z,18.80
2023-01-26T09:46:48.111Z,18.70
2023-01-26T09:49:22.317Z,19.40
2023-01-26T09:51:58.184Z,20.43
2023-01-26T09:54:35.651Z,19.03
2023-01-26T09:57:14.487Z,20.53
2023-01-26T09:59:50.133Z,19.07
2023-01-26T10:02:27.925Z,17.87
2023-01-26T10:05:00.417Z,20.50
2023-01-26T10:07:28.899Z,19.73
2023-01-26T10:09:58.658Z,20.53
2023-01-26T10:12:32.461Z,17.97
2023-01-26T10:15:04.778Z,18.20
2023-01-26T10:17:36.601Z,18.43
2023-01-26T10:20:11.079Z,18.60
2023-01-26T10:22:45.955Z,18.83
2023-01-26T10:25:18.381Z,18.57
2023-01-26T10:27:48.563Z,20.27
2023-01-26T10:30:18.852Z,18.30
2023-01-26T10:32:52.223Z,19.63
2023-01-26T10:35:23.519Z,20.33
2023-01-26T10:37:53.293Z,20.87
2023-01-26T10:40:22.425Z,20.47
2023-01-26T10:43:00.529Z,18.27
2023-01-26T10:45:33.102Z,18.97
2023-01-26T10:48:18.173Z,19.40
2023-01-26T10:50:47.705Z,21.20
2023-01-26T10:53:19.443Z,21.43
2023-01-26T10:56:02.353Z,20.10
2023-01-26T10:58:51.391Z,20.50
2023-01-26T11:01:23.067Z,21.47
2023-01-26T11:04:06.169Z,21.47
2023-01-26T11:06:35.779Z,22.30
2023-01-26T11:09:12.551Z,23.37
2023-01-26T11:11:41.781Z,23.80
2023-01-26T11:14:18.907Z,24.07
2023-01-26T11:16:58.502Z,23.13
2023-01-26T11:19:42.529Z,24.70
2023-01-26T11:22:16.735Z,24.93
2023-01-26T11:24:53.947Z,24.87
2023-01-26T11:27:34.175Z,22.00
2023-01-26T11:30:33.028Z,22.37
2023-01-26T11:33:05.546Z,19.77
2023-01-26T11:35:44.660Z,21.17
2023-01-26T11:38:24.729Z,22.90
2023-01-26T11:41:04.715Z,25.10
2023-01-26T11:43:57.918Z,20.53
2023-01-26T11:46:56.680Z,21.63
2023-01-26T11:49:52.127Z,21.20
2023-01-26T11:52:28.266Z,22.13
2023-01-26T11:55:19.685Z,23.87
2023-01-26T11:58:02.289Z,23.50
2023-01-26T12:00:41.718Z,22.77
2023-01-26T12:03:22.840Z,24.80
2023-01-26T12:05:55.784Z,23.87
2023-01-26T12:08:27.881Z,23.10
2023-01-26T12:11:22.867Z,20.73
2023-01-26T12:14:05.550Z,19.67
2023-01-26T12:16:44.299Z,19.23
2023-01-26T12:19:26.043Z,19.63
2023-01-26T12:21:59.884Z,18.80
2023-01-26T12:25:08.177Z,17.87
2023-01-26T12:27:32.685Z,19.20
2023-01-26T12:30:07.774Z,19.20
2023-01-26T12:32:36.586Z,21.63
2023-01-26T12:35:06.849Z,26.00
2023-01-26T12:37:51.469Z,25.00
2023-01-26T12:40:32.950Z,27.30
2023-01-26T12:43:17.316Z,31.03
2023-01-26T12:45:51.356Z,26.83
2023-01-26T12:48:25.202Z,24.83
2023-01-26T12:51:00.851Z,27.03
2023-01-26T12:53:34.187Z,22.70
2023-01-26T12:56:16.813Z,21.20
2023-01-26T12:58:47.440Z,20.37
2023-01-26T13:01:18.901Z,17.97
2023-01-26T13:03:55.056Z,21.30
2023-01-26T13:06:26.871Z,20.23
2023-01-26T13:09:19.601Z,21.00
2023-01-26T13:11:50.799Z,21.27
2023-01-26T13:14:35.423Z,20.53
2023-01-26T13:17:55.338Z,17.83
2023-01-26T13:20:45.773Z,20.47
2023-01-26T13:23:44.454Z,19.27
2023-01-26T13:26:21.246Z,18.13
2023-01-26T13:28:51.139Z,18.73
2023-01-26T13:31:35.658Z,20.97
2023-01-26T13:34:09.667Z,22.57
2023-01-26T13:36:43.534Z,19.00
2023-01-26T13:39:22.102Z,18.27
2023-01-26T13:41:50.958Z,18.73
2023-01-26T13:44:25.317Z,19.57
2023-01-26T13:46:58.867Z,19.17
2023-01-26T13:49:28.765Z,18.60
2023-01-26T13:51:57.252Z,19.27
2023-01-26T13:54:28.557Z,17.87
2023-01-26T13:57:06.172Z,16.77
2023-01-26T13:59:35.160Z,19.17
2023-01-26T14:02:03.656Z,26.93
2023-01-26T14:04:35.247Z,21.97
2023-01-26T14:07:06.557Z,21.20
2023-01-26T14:09:46.047Z,21.60
2023-01-26T14:12:23.953Z,20.17
2023-01-26T14:14:55.649Z,22.37
2023-01-26T14:17:28.136Z,22.90
2023-01-26T14:19:57.631Z,20.43
2023-01-26T14:22:26.104Z,20.17
2023-01-26T14:24:56.562Z,19.50
2023-01-26T14:27:36.959Z,20.83
2023-01-26T14:30:23.264Z,26.13
2023-01-26T14:33:00.216Z,26.90
2023-01-26T14:35:28.908Z,27.30
2023-01-26T14:38:07.756Z,27.67
2023-01-26T14:40:44.761Z,23.47
2023-01-26T14:43:14.448Z,20.20
2023-01-26T14:45:49.027Z,20.30
2023-01-26T14:48:21.952Z,18.97
2023-01-26T14:50:50.942Z,19.67
2023-01-26T14:53:22.335Z,21.17
2023-01-26T14:55:54.159Z,20.83
2023-01-26T14:58:25.730Z,20.30
2023-01-26T15:00:55.058Z,19.13
2023-01-26T15:03:27.845Z,19.53
2023-01-26T15:06:08.611Z,20.50
2023-01-26T15:08:38.070Z,23.30
2023-01-26T15:11:25.313Z,24.60
2023-01-26T15:13:55.667Z,24.63
2023-01-26T15:16:26.827Z,22.17
2023-01-26T15:19:01.901Z,20.03
2023-01-26T15:21:34.643Z,18.43
2023-01-26T15:24:03.246Z,21.57
2023-01-26T15:26:35.563Z,20.67
2023-01-26T15:29:07.374Z,20.73
2023-01-26T15:31:38.153Z,20.10
2023-01-26T15:34:07.527Z,20.07
2023-01-26T15:36:49.549Z,20.07
2023-01-26T15:39:19.379Z,23.40
2023-01-26T15:42:03.047Z,25.00
2023-01-26T15:44:31.511Z,25.43
2023-01-26T15:46:59.889Z,25.37
2023-01-26T15:49:28.227Z,27.73
2023-01-26T15:51:56.655Z,28.50
2023-01-26T15:54:25.046Z,26.27
2023-01-26T15:56:54.796Z,27.70
2023-01-26T15:59:23.181Z,26.77
2023-01-26T16:01:51.648Z,25.10
2023-01-26T16:04:20.066Z,24.77
2023-01-26T16:06:48.548Z,25.87
2023-01-26T16:09:16.949Z,27.43
2023-01-26T16:11:49.014Z,26.23
2023-01-26T16:14:19.630Z,28.47
2023-01-26T16:16:48.104Z,26.37
2023-01-26T16:19:34.419Z,25.70
2023-01-26T16:22:03.578Z,24.63
2023-01-26T16:24:32.036Z,25.43
2023-01-26T16:27:00.417Z,25.87
2023-01-26T16:29:31.527Z,25.70
2023-01-26T16:32:00.655Z,25.47
2023-01-26T16:34:29.626Z,24.93
2023-01-26T16:36:58.012Z,23.60
2023-01-26T16:39:26.438Z,25.70
2023-01-26T16:41:54.891Z,26.53
2023-01-26T16:44:24.534Z,29.17
2023-01-26T16:46:54.523Z,29.10
2023-01-26T16:49:23.058Z,26.07
2023-01-26T16:51:51.454Z,24.80
2023-01-26T16:54:19.868Z,24.47
2023-01-26T16:56:48.262Z,24.33
2023-01-26T16:59:16.651Z,27.20
2023-01-26T17:01:45.194Z,26.60
2023-01-26T17:04:15.141Z,24.87
2023-01-26T17:06:43.571Z,32.37
2023-01-26T17:09:11.980Z,31.73
2023-01-26T17:11:40.912Z,27.77
2023-01-26T17:14:11.588Z,25.60
2023-01-26T17:16:40.761Z,30.87
2023-01-26T17:19:09.602Z,28.57
2023-01-26T17:21:39.580Z,29.57
2023-01-26T17:24:08.369Z,33.73
2023-01-26T17:26:36.867Z,34.80
2023-01-26T17:29:05.409Z,39.70
2023-01-26T17:31:34.506Z,39.20
2023-01-26T17:34:05.598Z,40.07
2023-01-26T17:36:34.039Z,39.70
2023-01-26T17:39:03.884Z,36.73
2023-01-26T17:41:32.374Z,34.97
2023-01-26T17:44:00.858Z,36.63
2023-01-26T17:46:29.311Z,36.50
2023-01-26T17:48:57.672Z,35.63
2023-01-26T17:51:26.102Z,32.57
2023-01-26T17:53:55.277Z,35.60
2023-01-26T17:56:25.252Z,37.53
2023-01-26T17:58:55.354Z,33.10
2023-01-26T18:01:25.346Z,30.43
2023-01-26T18:03:54.854Z,29.00
2023-01-26T18:06:23.825Z,28.33
2023-01-26T18:08:52.290Z,29.90
2023-01-26T18:11:21.166Z,29.83
2023-01-26T18:13:51.972Z,28.50
2023-01-26T18:16:22.396Z,28.07
2023-01-26T18:18:55.229Z,26.40
2023-01-26T18:21:25.467Z,26.20
2023-01-26T18:23:56.170Z,30.20
2023-01-26T18:26:27.497Z,31.27
2023-01-26T18:28:57.363Z,32.53
2023-01-26T18:31:27.591Z,32.50
2023-01-26T18:33:57.922Z,35.20
2023-01-26T18:36:26.730Z,37.10
2023-01-26T18:38:57.998Z,36.63
2023-01-26T18:41:28.022Z,38.13
2023-01-26T18:43:58.984Z,35.37
2023-01-26T18:46:28.936Z,34.23
2023-01-26T18:49:00.976Z,31.90
2023-01-26T18:51:31.065Z,34.43
2023-01-26T18:54:00.183Z,35.00
2023-01-26T18:56:28.781Z,35.30
2023-01-26T18:58:58.645Z,34.60
2023-01-26T19:01:27.405Z,33.67
2023-01-26T19:03:57.042Z,35.60
2023-01-26T19:06:28.557Z,36.97
2023-01-26T19:08:59.574Z,36.70
2023-01-26T19:11:28.908Z,34.33
2023-01-26T19:14:06.390Z,34.37
2023-01-26T19:16:37.339Z,33.00
2023-01-26T19:19:06.418Z,34.13
2023-01-26T19:21:34.896Z,36.93
2023-01-26T19:24:06.294Z,38.37
2023-01-26T19:26:36.094Z,41.20
2023-01-26T19:29:09.360Z,45.13
2023-01-26T19:31:38.121Z,44.17
2023-01-26T19:34:09.019Z,58.77
2023-01-26T19:36:38.329Z,63.73
2023-01-26T19:39:07.818Z,53.60
2023-01-26T19:41:36.331Z,47.87
2023-01-26T19:44:06.783Z,45.90
2023-01-26T19:46:35.371Z,45.80
2023-01-26T19:49:03.912Z,39.60
2023-01-26T19:51:33.371Z,36.33
2023-01-26T19:54:01.816Z,35.97
2023-01-26T19:56:31.956Z,36.17
2023-01-26T19:59:04.451Z,36.57
2023-01-26T20:01:34.676Z,34.43
2023-01-26T20:04:06.022Z,32.37
2023-01-26T20:06:36.733Z,31.73
2023-01-26T20:09:06.995Z,33.00
2023-01-26T20:11:36.106Z,33.00
2023-01-26T20:14:06.214Z,32.70
2023-01-26T20:16:37.258Z,32.63
2023-01-26T20:19:06.011Z,33.70
2023-01-26T20:21:38.961Z,36.47
2023-01-26T20:24:09.224Z,258.03
2023-01-26T20:26:37.736Z,468.30
2023-01-26T20:29:06.766Z,222.60
2023-01-26T20:31:36.662Z,105.77
2023-01-26T20:34:05.232Z,39.67
2023-01-26T20:36:35.334Z,35.13
2023-01-26T20:39:04.360Z,35.20
2023-01-26T20:41:34.684Z,33.93
2023-01-26T20:44:05.039Z,35.30
2023-01-26T20:46:37.224Z,38.70
2023-01-26T20:49:06.468Z,36.83
2023-01-26T20:51:36.741Z,33.80
2023-01-26T20:54:07.612Z,32.97
2023-01-26T20:56:36.927Z,32.93
2023-01-26T20:59:06.118Z,30.60
2023-01-26T21:01:38.064Z,27.60
2023-01-26T21:04:08.188Z,29.53
2023-01-26T21:06:38.198Z,30.90
2023-01-26T21:09:12.656Z,30.20
2023-01-26T21:11:41.543Z,34.03
2023-01-26T21:14:14.441Z,35.33
2023-01-26T21:16:52.443Z,35.17
2023-01-26T21:19:22.006Z,36.47
2023-01-26T21:21:50.705Z,36.50
2023-01-26T21:24:19.162Z,38.00
2023-01-26T21:26:48.791Z,43.73
2023-01-26T21:29:17.863Z,38.40
2023-01-26T21:31:49.185Z,33.47
2023-01-26T21:34:17.804Z,33.03
2023-01-26T21:36:46.242Z,33.43
2023-01-26T21:39:15.792Z,36.20
2023-01-26T21:41:59.928Z,36.97
2023-01-26T21:44:29.893Z,36.83
2023-01-26T21:47:01.251Z,37.53
2023-01-26T21:49:30.057Z,39.53
2023-01-26T21:52:16.348Z,39.33
2023-01-26T21:54:44.947Z,37.57
2023-01-26T21:57:30.960Z,38.60
2023-01-26T21:59:59.410Z,43.67
2023-01-26T22:02:29.432Z,44.40
2023-01-26T22:04:57.809Z,40.87
2023-01-26T22:07:28.287Z,44.17
2023-01-26T22:09:56.879Z,42.60
2023-01-26T22:12:25.466Z,39.93
2023-01-26T22:14:53.843Z,41.00
2023-01-26T22:17:22.339Z,42.10
2023-01-26T22:19:52.912Z,45.37
2023-01-26T22:22:21.402Z,45.40
2023-01-26T22:24:49.898Z,45.63
2023-01-26T22:27:18.282Z,47.30
2023-01-26T22:29:46.787Z,47.83
2023-01-26T22:32:15.456Z,44.50
2023-01-26T22:34:43.950Z,45.03
2023-01-26T22:37:14.158Z,43.90
2023-01-26T22:39:43.377Z,43.77
2023-01-26T22:42:11.766Z,46.20
2023-01-26T22:44:40.178Z,46.37
2023-01-26T22:47:08.570Z,46.43
2023-01-26T22:49:37.023Z,44.70
2023-01-26T22:52:06.890Z,42.80
2023-01-26T22:54:36.943Z,43.00
2023-01-26T22:57:06.103Z,42.03
2023-01-26T22:59:34.547Z,42.17
2023-01-26T23:02:03.036Z,41.97
2023-01-26T23:04:31.584Z,44.40
2023-01-26T23:07:01.942Z,43.67
2023-01-26T23:09:30.421Z,41.70
2023-01-26T23:12:02.193Z,38.70
2023-01-26T23:14:31.315Z,38.57
2023-01-26T23:17:00.206Z,35.87
2023-01-26T23:19:30.250Z,36.63
2023-01-26T23:21:58.792Z,37.50
2023-01-26T23:24:27.429Z,35.67
2023-01-26T23:26:55.923Z,33.77
2023-01-26T23:29:26.012Z,31.70
2023-01-26T23:31:54.805Z,32.83
2023-01-26T23:34:23.419Z,31.87
2023-01-26T23:36:51.886Z,31.50
2023-01-26T23:39:20.441Z,32.07
2023-01-26T23:41:48.878Z,32.70
2023-01-26T23:44:17.419Z,32.07
2023-01-26T23:46:47.411Z,31.93
2023-01-26T23:49:15.943Z,31.73
2023-01-26T23:51:44.529Z,33.50
2023-01-26T23:54:13.013Z,32.40
2023-01-26T23:56:41.429Z,37.07
2023-01-26T23:59:09.870Z,39.43
